Terminal Aerodrome Forecast
Issued by NWS Wilmington, OH

Current Version | Previous Version | Graphics & Text | Print | Product List | Glossary On
Versions: 1 2 3 4 5 6 7 8 9 10 11 12 13 14 15 16 17 18 19 20 21 22 23 24 25 26 27 28
000
FTUS41 KILN 021500 AAA
TAFCVG
TAF AMD
KCVG 021509Z 0215/0318 03006KT P6SM OVC011
     FM021900 04010KT P6SM SCT015 BKN100
     FM030000 03006KT P6SM SCT100
     FM030600 04005KT P6SM BKN035
     FM031000 03005KT P6SM BKN015=

USA.gov is the U.S. government's official web portal to all federal, state and local government web resources and services.